createdAt,value
2022-10-05T00:00:24.344Z,5.50
2022-10-05T00:05:53.821Z,7.30
2022-10-05T00:11:04.498Z,6.00
2022-10-05T00:16:34.350Z,5.70
2022-10-05T00:22:03.770Z,6.90
2022-10-05T00:27:39.746Z,7.90
2022-10-05T00:32:56.028Z,9.10
2022-10-05T00:38:28.571Z,7.60
2022-10-05T00:44:32.132Z,4.90
2022-10-05T00:50:53.106Z,5.60
2022-10-05T00:57:27.771Z,8.20
2022-10-05T01:03:01.473Z,6.40
2022-10-05T01:08:58.573Z,5.80
2022-10-05T01:14:47.127Z,7.00
2022-10-05T01:20:33.988Z,6.20
2022-10-05T01:26:55.643Z,6.60
2022-10-05T01:32:56.275Z,5.60
2022-10-05T01:38:54.150Z,5.70
2022-10-05T01:44:51.707Z,6.00
2022-10-05T01:51:00.828Z,5.60
2022-10-05T02:07:32.283Z,6.90
2022-10-05T02:12:37.788Z,5.90
2022-10-05T02:18:03.691Z,7.20
2022-10-05T02:23:12.869Z,6.90
2022-10-05T02:28:23.995Z,7.50
2022-10-05T02:33:31.456Z,7.00
2022-10-05T02:38:49.890Z,9.10
2022-10-05T02:44:20.623Z,9.40
2022-10-05T02:49:29.870Z,8.40
2022-10-05T02:55:21.269Z,7.50
2022-10-05T03:00:28.964Z,10.20
2022-10-05T03:05:47.156Z,9.00
2022-10-05T03:11:33.234Z,6.20
2022-10-05T03:17:04.119Z,5.10
2022-10-05T03:22:22.915Z,6.40
2022-10-05T03:27:53.252Z,7.10
2022-10-05T03:33:06.837Z,7.20
2022-10-05T03:38:17.268Z,6.40
2022-10-05T03:43:34.839Z,6.70
2022-10-05T03:48:48.011Z,6.90
2022-10-05T03:54:00.186Z,5.70
2022-10-05T03:59:22.926Z,6.00
2022-10-05T04:05:14.331Z,5.60
2022-10-05T04:11:02.743Z,6.30
2022-10-05T04:16:56.806Z,7.80
2022-10-05T04:23:03.735Z,8.90
2022-10-05T04:29:02.325Z,6.80
2022-10-05T04:34:26.108Z,6.80
2022-10-05T04:39:31.936Z,6.20
2022-10-05T04:44:40.742Z,6.20
2022-10-05T04:50:09.564Z,8.10
2022-10-05T04:55:32.115Z,7.50
2022-10-05T05:01:10.684Z,7.10
2022-10-05T05:06:43.322Z,6.10
2022-10-05T05:12:08.471Z,7.50
2022-10-05T05:17:33.291Z,7.40
2022-10-05T05:22:59.335Z,7.20
2022-10-05T05:28:30.216Z,8.00
2022-10-05T05:33:33.599Z,9.80
2022-10-05T05:39:06.711Z,15.50
2022-10-05T05:44:32.507Z,15.70
2022-10-05T05:50:08.625Z,12.70
2022-10-05T05:55:30.321Z,11.60
2022-10-05T06:00:50.375Z,12.80
2022-10-05T06:06:04.845Z,19.00
2022-10-05T06:11:24.193Z,10.90
2022-10-05T06:16:27.549Z,8.20
2022-10-05T06:21:39.065Z,8.50
2022-10-05T06:26:54.539Z,8.50
2022-10-05T06:32:15.926Z,9.30
2022-10-05T06:37:56.140Z,9.30
2022-10-05T06:43:02.481Z,9.00
2022-10-05T06:48:32.609Z,8.70
2022-10-05T06:54:12.690Z,7.10
2022-10-05T06:59:18.649Z,10.50
2022-10-05T07:04:39.576Z,7.30
2022-10-05T07:09:49.012Z,8.00
2022-10-05T07:15:40.798Z,7.70
2022-10-05T07:21:03.752Z,7.50
2022-10-05T07:26:10.959Z,7.70
2022-10-05T07:31:27.822Z,7.40
2022-10-05T07:36:55.030Z,7.70
2022-10-05T07:42:10.904Z,7.50
2022-10-05T07:47:37.157Z,7.10
2022-10-05T07:52:47.188Z,6.70
2022-10-05T07:58:10.312Z,7.70
2022-10-05T08:03:41.208Z,8.00
2022-10-05T08:08:52.844Z,8.30
2022-10-05T08:14:24.835Z,9.30
2022-10-05T08:19:41.019Z,6.90
2022-10-05T08:25:06.614Z,9.40
2022-10-05T08:30:13.585Z,6.70
2022-10-05T08:35:45.521Z,10.10
2022-10-05T08:41:21.155Z,6.20
2022-10-05T08:46:48.013Z,6.30
2022-10-05T08:51:57.826Z,7.50
2022-10-05T08:57:39.831Z,6.40
2022-10-05T09:03:20.833Z,5.30
2022-10-05T09:08:45.873Z,6.10
2022-10-05T09:14:04.408Z,5.80
2022-10-05T09:19:45.083Z,6.90
2022-10-05T09:24:54.404Z,6.50
2022-10-05T09:30:06.702Z,5.80
2022-10-05T09:35:35.297Z,6.80
2022-10-05T09:40:53.704Z,7.20
2022-10-05T09:46:24.949Z,6.10
2022-10-05T09:51:53.421Z,4.90
2022-10-05T09:57:28.948Z,5.50
2022-10-05T10:02:57.286Z,6.60
2022-10-05T10:08:20.679Z,5.90
2022-10-05T10:13:53.820Z,4.40
2022-10-05T10:19:14.693Z,5.10
2022-10-05T10:24:38.386Z,5.10
2022-10-05T10:30:13.682Z,5.70
2022-10-05T10:35:35.100Z,4.40
2022-10-05T10:40:54.695Z,4.70
2022-10-05T10:46:15.927Z,4.80
2022-10-05T10:52:02.827Z,3.60
2022-10-05T10:57:14.144Z,4.30
2022-10-05T11:02:45.565Z,5.60
2022-10-05T11:08:03.015Z,4.80
2022-10-05T11:13:25.839Z,4.60
2022-10-05T11:19:07.304Z,4.50
2022-10-05T11:24:42.019Z,5.40
2022-10-05T11:29:54.556Z,3.70
2022-10-05T11:35:15.497Z,3.60
2022-10-05T11:41:16.201Z,4.50
2022-10-05T11:46:41.455Z,3.60
2022-10-05T11:52:11.584Z,3.80
2022-10-05T11:57:26.420Z,2.70
2022-10-05T12:02:57.264Z,3.30
2022-10-05T12:08:19.220Z,3.30
2022-10-05T12:13:37.654Z,5.10
2022-10-05T12:19:03.356Z,2.80
2022-10-05T12:24:26.815Z,4.00
2022-10-05T12:29:43.330Z,6.60
2022-10-05T12:35:01.665Z,6.50
2022-10-05T12:40:32.754Z,2.30
2022-10-05T12:45:59.976Z,2.90
2022-10-05T12:51:09.170Z,3.00
2022-10-05T12:56:45.064Z,3.20
2022-10-05T13:02:15.678Z,3.60
2022-10-05T13:07:34.221Z,3.90
2022-10-05T13:13:02.062Z,3.10
2022-10-05T13:18:27.228Z,3.90
2022-10-05T13:23:45.099Z,3.10
2022-10-05T13:29:18.285Z,4.10
2022-10-05T13:34:25.523Z,4.20
2022-10-05T13:39:47.771Z,3.40
2022-10-05T13:44:55.765Z,3.80
2022-10-05T13:50:17.512Z,6.40
2022-10-05T13:55:30.677Z,5.20
2022-10-05T14:00:43.960Z,5.00
2022-10-05T14:05:57.668Z,4.40
2022-10-05T14:11:29.132Z,2.90
2022-10-05T14:16:33.929Z,3.00
2022-10-05T14:22:08.126Z,4.50
2022-10-05T14:33:02.060Z,5.00
2022-10-05T14:38:32.250Z,3.50
2022-10-05T14:43:37.107Z,4.60
2022-10-05T14:48:45.118Z,9.80
2022-10-05T14:53:58.789Z,6.50
2022-10-05T15:04:47.383Z,5.30
2022-10-05T15:10:05.869Z,5.30
2022-10-05T15:15:32.978Z,6.40
2022-10-05T15:20:54.391Z,6.40
2022-10-05T15:26:13.590Z,5.40
2022-10-05T15:31:55.199Z,6.20
2022-10-05T15:37:08.850Z,9.00
2022-10-05T15:42:17.086Z,10.50
2022-10-05T15:47:46.428Z,5.50
2022-10-05T15:52:59.724Z,5.20
2022-10-05T15:58:31.503Z,6.40
2022-10-05T16:03:47.149Z,6.20
2022-10-05T16:09:27.877Z,6.20
2022-10-05T16:14:55.249Z,5.80
2022-10-05T16:20:35.972Z,5.50
2022-10-05T16:25:47.424Z,5.00
2022-10-05T16:31:04.732Z,5.10
2022-10-05T16:36:53.360Z,5.20
2022-10-05T16:42:26.261Z,5.40
2022-10-05T16:47:41.558Z,5.60
2022-10-05T16:52:51.419Z,5.70
2022-10-05T16:57:57.110Z,15.40
2022-10-05T17:03:16.061Z,8.60
2022-10-05T17:08:45.794Z,9.40
2022-10-05T17:13:58.019Z,6.10
2022-10-05T17:19:19.856Z,8.50
2022-10-05T17:25:00.549Z,6.50
2022-10-05T17:30:22.214Z,6.00
2022-10-05T17:36:01.054Z,7.40
2022-10-05T17:41:10.145Z,6.30
2022-10-05T17:46:36.398Z,5.50
2022-10-05T17:51:58.371Z,7.60
2022-10-05T17:57:04.874Z,8.40
2022-10-05T18:02:20.099Z,8.10
2022-10-05T18:07:24.966Z,5.30
2022-10-05T18:12:45.925Z,7.80
2022-10-05T18:17:59.715Z,6.50
2022-10-05T18:23:10.011Z,5.30
2022-10-05T18:28:23.405Z,8.80
2022-10-05T18:34:01.218Z,9.00
2022-10-05T18:39:13.971Z,9.70
2022-10-05T18:44:46.454Z,6.90
2022-10-05T18:50:04.875Z,8.90
2022-10-05T18:55:33.033Z,7.80
2022-10-05T19:00:59.556Z,7.70
2022-10-05T19:06:04.428Z,6.50
2022-10-05T19:11:23.593Z,9.20
2022-10-05T19:16:49.703Z,6.80
2022-10-05T19:22:11.581Z,7.20
2022-10-05T19:27:26.705Z,6.70
2022-10-05T19:32:51.467Z,8.50
2022-10-05T19:38:00.981Z,7.70
2022-10-05T19:43:18.998Z,8.10
2022-10-05T19:48:38.214Z,7.10
2022-10-05T19:53:47.204Z,9.70
2022-10-05T19:58:52.228Z,6.50
2022-10-05T20:03:58.349Z,14.50
2022-10-05T20:09:19.785Z,8.30
2022-10-05T20:14:31.761Z,11.30
2022-10-05T20:19:56.716Z,6.40
2022-10-05T20:25:31.059Z,7.50
2022-10-05T20:30:34.464Z,9.50
2022-10-05T20:35:37.674Z,7.10
2022-10-05T20:40:40.984Z,7.50
2022-10-05T20:45:44.192Z,7.50
2022-10-05T20:50:47.717Z,7.60
2022-10-05T20:55:50.907Z,8.60
2022-10-05T21:01:12.924Z,8.20
2022-10-05T21:06:18.194Z,7.90
2022-10-05T21:11:21.739Z,15.60
2022-10-05T21:16:25.271Z,17.10
2022-10-05T21:21:28.873Z,14.10
2022-10-05T21:26:33.110Z,11.60
2022-10-05T21:36:40.549Z,9.10
2022-10-05T21:41:43.856Z,7.50
2022-10-05T21:46:48.568Z,10.40
2022-10-05T21:51:54.046Z,11.70
2022-10-05T21:56:59.017Z,10.90
2022-10-05T22:02:02.904Z,9.80
2022-10-05T22:07:20.624Z,11.30
2022-10-05T22:12:24.717Z,12.90
2022-10-05T22:17:31.442Z,7.80
2022-10-05T22:22:34.834Z,10.30
2022-10-05T22:27:38.111Z,11.00
2022-10-05T22:32:42.888Z,10.50
2022-10-05T22:37:46.498Z,9.30
2022-10-05T22:42:49.987Z,10.40
2022-10-05T22:47:53.323Z,10.80
2022-10-05T22:52:56.486Z,10.10
2022-10-05T22:58:02.096Z,11.80
2022-10-05T23:03:05.511Z,13.00
2022-10-05T23:08:08.691Z,10.20
2022-10-05T23:13:11.892Z,7.50
2022-10-05T23:18:16.908Z,8.70
2022-10-05T23:23:20.395Z,7.00
2022-10-05T23:28:23.764Z,7.40
2022-10-05T23:33:27.798Z,8.00
2022-10-05T23:38:31.517Z,7.40
2022-10-05T23:48:38.577Z,7.80
2022-10-05T23:53:42.193Z,10.90
2022-10-05T23:58:45.502Z,8.30
